createdAt,value
2023-05-11T00:02:15.335Z,13.60
2023-05-11T00:04:42.555Z,13.60
2023-05-11T00:07:09.678Z,13.70
2023-05-11T00:09:38.424Z,13.80
2023-05-11T00:12:06.108Z,13.90
2023-05-11T00:14:33.199Z,14.00
2023-05-11T00:17:00.074Z,14.00
2023-05-11T00:19:31.641Z,13.90
2023-05-11T00:21:59.678Z,13.70
2023-05-11T00:24:26.980Z,13.60
2023-05-11T00:26:53.946Z,13.60
2023-05-11T00:29:21.296Z,13.60
2023-05-11T00:31:48.752Z,13.70
2023-05-11T00:34:16.564Z,13.60
2023-05-11T00:36:43.889Z,13.60
2023-05-11T00:39:12.543Z,13.50
2023-05-11T00:41:39.738Z,13.50
2023-05-11T00:44:08.398Z,13.50
2023-05-11T00:46:35.400Z,13.40
2023-05-11T00:49:02.934Z,13.40
2023-05-11T00:51:32.211Z,13.40
2023-05-11T00:53:59.799Z,13.40
2023-05-11T00:56:26.791Z,13.30
2023-05-11T00:58:53.866Z,13.30
2023-05-11T01:01:21.277Z,13.20
2023-05-11T01:03:48.513Z,13.20
2023-05-11T01:06:27.193Z,13.20
2023-05-11T01:09:06.478Z,13.20
2023-05-11T01:11:47.202Z,13.30
2023-05-11T01:14:20.459Z,13.30
2023-05-11T01:16:51.621Z,13.30
2023-05-11T01:19:56.903Z,13.40
2023-05-11T01:22:26.839Z,13.40
2023-05-11T01:25:13.518Z,13.40
2023-05-11T01:28:26.002Z,13.40
2023-05-11T01:31:01.883Z,13.40
2023-05-11T01:33:33.729Z,13.30
2023-05-11T01:36:07.615Z,13.40
2023-05-11T01:38:38.562Z,13.40
2023-05-11T01:41:13.409Z,13.40
2023-05-11T01:43:43.513Z,13.40
2023-05-11T01:46:14.079Z,13.40
2023-05-11T01:48:46.741Z,13.30
2023-05-11T01:51:15.989Z,13.30
2023-05-11T01:53:45.014Z,13.40
2023-05-11T01:56:12.991Z,13.50
2023-05-11T01:58:41.832Z,13.70
2023-05-11T02:01:10.332Z,13.70
2023-05-11T02:03:38.600Z,13.90
2023-05-11T02:06:07.064Z,13.90
2023-05-11T02:08:36.604Z,13.90
2023-05-11T02:11:04.467Z,14.00
2023-05-11T02:13:34.668Z,13.90
2023-05-11T02:16:02.843Z,13.80
2023-05-11T02:18:30.725Z,13.90
2023-05-11T02:21:00.221Z,13.90
2023-05-11T02:23:29.672Z,13.90
2023-05-11T02:25:57.391Z,14.00
2023-05-11T02:28:24.743Z,13.90
2023-05-11T02:30:55.883Z,13.70
2023-05-11T02:33:36.427Z,13.60
2023-05-11T02:36:05.766Z,13.60
2023-05-11T02:38:35.983Z,13.50
2023-05-11T02:41:09.690Z,13.50
2023-05-11T02:43:43.427Z,13.60
2023-05-11T02:46:16.547Z,13.50
2023-05-11T02:48:47.476Z,13.40
2023-05-11T02:51:19.151Z,13.30
2023-05-11T02:53:51.477Z,13.40
2023-05-11T02:56:18.586Z,13.40
2023-05-11T02:58:45.816Z,13.30
2023-05-11T03:01:20.789Z,13.30
2023-05-11T03:03:48.141Z,13.30
2023-05-11T03:06:15.436Z,13.40
2023-05-11T03:08:42.933Z,13.40
2023-05-11T03:11:12.589Z,13.40
2023-05-11T03:13:39.676Z,13.50
2023-05-11T03:16:08.920Z,13.50
2023-05-11T03:18:36.951Z,13.60
2023-05-11T03:21:05.687Z,13.80
2023-05-11T03:23:35.117Z,13.80
2023-05-11T03:26:04.041Z,13.90
2023-05-11T03:28:32.161Z,13.80
2023-05-11T03:31:02.603Z,13.70
2023-05-11T03:33:32.307Z,13.80
2023-05-11T03:36:02.807Z,13.90
2023-05-11T03:38:31.206Z,14.10
2023-05-11T03:41:00.726Z,14.10
2023-05-11T03:43:31.988Z,14.10
2023-05-11T03:46:00.724Z,14.20
2023-05-11T03:48:28.851Z,14.00
2023-05-11T03:50:56.421Z,14.00
2023-05-11T03:53:23.953Z,13.90
2023-05-11T03:55:52.810Z,13.90
2023-05-11T03:58:20.312Z,13.80
2023-05-11T04:00:47.622Z,13.80
2023-05-11T04:03:14.977Z,13.80
2023-05-11T04:05:42.452Z,13.60
2023-05-11T04:08:12.538Z,13.60
2023-05-11T04:10:39.513Z,13.40
2023-05-11T04:13:06.463Z,13.50
2023-05-11T04:15:33.416Z,13.50
2023-05-11T04:18:00.522Z,13.40
2023-05-11T04:20:27.556Z,13.50
2023-05-11T04:22:54.696Z,13.50
2023-05-11T04:25:21.661Z,13.40
2023-05-11T04:27:48.600Z,13.60
2023-05-11T04:30:15.757Z,13.60
2023-05-11T04:32:42.844Z,13.60
2023-05-11T04:35:10.340Z,13.70
2023-05-11T04:37:38.969Z,13.70
2023-05-11T04:40:09.154Z,13.70
2023-05-11T04:42:43.420Z,13.80
2023-05-11T04:45:15.237Z,13.80
2023-05-11T04:47:42.950Z,14.00
2023-05-11T04:50:11.017Z,14.00
2023-05-11T04:52:38.144Z,14.30
2023-05-11T04:55:05.600Z,14.60
2023-05-11T04:57:33.080Z,14.60
2023-05-11T05:00:01.440Z,14.60
2023-05-11T05:02:29.002Z,14.30
2023-05-11T05:04:56.009Z,14.10
2023-05-11T05:07:23.666Z,14.10
2023-05-11T05:09:50.677Z,14.00
2023-05-11T05:12:17.637Z,14.10
2023-05-11T05:14:44.575Z,13.80
2023-05-11T05:17:11.580Z,13.90
2023-05-11T05:19:40.007Z,14.10
2023-05-11T05:22:07.225Z,14.30
2023-05-11T05:24:34.787Z,14.50
2023-05-11T05:27:03.380Z,14.50
2023-05-11T05:29:30.499Z,14.60
2023-05-11T05:31:59.785Z,14.50
2023-05-11T05:34:27.355Z,14.70
2023-05-11T05:36:54.369Z,14.70
2023-05-11T05:39:21.468Z,14.50
2023-05-11T05:41:48.363Z,14.50
2023-05-11T05:44:15.363Z,14.50
2023-05-11T05:46:42.821Z,14.40
2023-05-11T05:49:09.874Z,14.40
2023-05-11T05:51:37.850Z,14.50
2023-05-11T05:54:04.955Z,14.50
2023-05-11T05:56:35.013Z,14.40
2023-05-11T05:59:02.162Z,14.50
2023-05-11T06:01:29.295Z,14.70
2023-05-11T06:03:56.582Z,15.00
2023-05-11T06:06:25.382Z,15.50
2023-05-11T06:08:53.671Z,15.90
2023-05-11T06:11:21.813Z,15.90
2023-05-11T06:13:49.272Z,16.00
2023-05-11T06:16:16.386Z,16.10
2023-05-11T06:18:43.494Z,16.10
2023-05-11T06:21:11.021Z,16.30
2023-05-11T06:23:38.019Z,16.50
2023-05-11T06:26:05.160Z,16.60
2023-05-11T06:28:33.277Z,16.60
2023-05-11T06:31:03.814Z,16.80
2023-05-11T06:33:34.685Z,16.80
2023-05-11T06:36:08.675Z,16.90
2023-05-11T06:38:36.527Z,17.00
2023-05-11T06:41:03.525Z,17.10
2023-05-11T06:43:30.532Z,16.80
2023-05-11T06:46:01.468Z,15.90
2023-05-11T06:48:29.962Z,15.70
2023-05-11T06:50:59.191Z,15.50
2023-05-11T06:53:26.179Z,15.40
2023-05-11T06:55:55.711Z,15.50
2023-05-11T06:58:22.978Z,15.70
2023-05-11T07:00:50.091Z,15.70
2023-05-11T07:03:17.161Z,15.20
2023-05-11T07:05:44.096Z,15.50
2023-05-11T07:08:12.202Z,15.40
2023-05-11T07:10:39.157Z,15.50
2023-05-11T07:13:06.031Z,15.30
2023-05-11T07:15:33.026Z,15.40
2023-05-11T07:18:01.419Z,15.40
2023-05-11T07:20:28.463Z,15.50
2023-05-11T07:22:59.429Z,15.80
2023-05-11T07:25:26.634Z,15.70
2023-05-11T07:27:53.609Z,15.60
2023-05-11T07:30:20.949Z,15.20
2023-05-11T07:32:48.392Z,15.10
2023-05-11T07:35:15.495Z,15.50
2023-05-11T07:37:42.724Z,15.50
2023-05-11T07:40:09.981Z,15.50
2023-05-11T07:42:36.898Z,15.70
2023-05-11T07:45:03.976Z,15.90
2023-05-11T07:47:31.196Z,16.10
2023-05-11T07:49:58.196Z,16.30
2023-05-11T07:52:25.087Z,16.60
2023-05-11T07:54:52.108Z,17.80
2023-05-11T07:57:20.047Z,18.00
2023-05-11T07:59:46.996Z,18.40
2023-05-11T08:02:14.373Z,18.70
2023-05-11T08:04:41.513Z,18.70
2023-05-11T08:07:08.992Z,18.00
2023-05-11T08:09:36.395Z,17.90
2023-05-11T08:12:03.805Z,19.10
2023-05-11T08:14:30.750Z,18.70
2023-05-11T08:16:57.845Z,18.00
2023-05-11T08:19:25.009Z,18.30
2023-05-11T08:21:52.379Z,18.60
2023-05-11T08:24:19.414Z,18.10
2023-05-11T08:26:47.244Z,18.90
2023-05-11T08:29:14.257Z,19.60
2023-05-11T08:31:41.185Z,20.10
2023-05-11T08:34:18.598Z,19.90
2023-05-11T08:36:46.860Z,20.00
2023-05-11T08:39:13.988Z,19.90
2023-05-11T08:41:41.052Z,18.90
2023-05-11T08:44:09.403Z,19.60
2023-05-11T08:46:41.839Z,19.10
2023-05-11T08:49:09.389Z,20.10
2023-05-11T08:51:36.433Z,21.30
2023-05-11T08:54:03.796Z,22.10
2023-05-11T08:56:31.906Z,22.60
2023-05-11T08:58:59.096Z,22.00
2023-05-11T09:01:29.558Z,21.50
2023-05-11T09:03:58.318Z,20.50
2023-05-11T09:06:27.263Z,19.80
2023-05-11T09:08:54.858Z,19.80
2023-05-11T09:11:22.928Z,19.50
2023-05-11T09:13:51.015Z,19.10
2023-05-11T09:16:32.984Z,18.90
2023-05-11T09:19:04.063Z,18.80
2023-05-11T09:21:32.016Z,18.70
2023-05-11T09:23:59.530Z,18.70
2023-05-11T09:26:29.215Z,18.60
2023-05-11T09:31:49.291Z,18.70
2023-05-11T09:34:17.329Z,18.80
2023-05-11T09:36:46.516Z,18.80
2023-05-11T09:39:16.785Z,18.80
2023-05-11T09:41:44.067Z,18.70
2023-05-11T09:44:15.730Z,18.80
2023-05-11T09:46:44.678Z,18.80
2023-05-11T09:49:12.442Z,18.70
2023-05-11T09:51:40.839Z,18.70
2023-05-11T09:54:19.852Z,18.30
2023-05-11T09:56:48.107Z,18.20
2023-05-11T09:59:36.725Z,18.30
2023-05-11T10:02:23.636Z,18.40
2023-05-11T10:04:53.440Z,18.60
2023-05-11T10:07:39.214Z,18.70
2023-05-11T10:10:08.211Z,18.80
2023-05-11T10:12:38.555Z,18.80
2023-05-11T10:15:07.826Z,19.10
2023-05-11T10:17:35.526Z,19.30
2023-05-11T10:20:04.357Z,19.50
2023-05-11T10:22:31.810Z,19.40
2023-05-11T10:24:59.737Z,19.50
2023-05-11T10:27:28.705Z,19.40
2023-05-11T10:29:58.272Z,19.70
2023-05-11T10:32:28.524Z,19.60
2023-05-11T10:34:57.072Z,19.60
2023-05-11T10:37:24.385Z,19.70
2023-05-11T10:39:52.532Z,19.90
2023-05-11T10:42:25.302Z,19.90
2023-05-11T10:44:54.964Z,19.70
2023-05-11T10:48:00.009Z,20.00
2023-05-11T10:51:01.385Z,20.40
2023-05-11T10:53:53.054Z,20.50
2023-05-11T10:56:35.332Z,21.00
2023-05-11T10:59:05.246Z,21.20
2023-05-11T11:01:41.977Z,21.20
2023-05-11T11:04:13.344Z,21.20
2023-05-11T11:06:44.465Z,21.70
2023-05-11T11:09:14.580Z,21.90
2023-05-11T11:11:46.531Z,22.10
2023-05-11T11:14:15.427Z,22.00
2023-05-11T11:17:14.432Z,22.10
2023-05-11T11:19:42.763Z,21.70
2023-05-11T11:22:34.938Z,21.70
2023-05-11T11:25:05.133Z,21.60
2023-05-11T11:27:41.430Z,21.40
2023-05-11T11:30:19.654Z,21.20
2023-05-11T11:32:52.314Z,20.90
2023-05-11T11:35:44.903Z,20.50
2023-05-11T11:38:12.768Z,20.30
2023-05-11T11:40:50.709Z,20.00
2023-05-11T11:43:21.343Z,19.80
2023-05-11T11:46:01.613Z,19.50
2023-05-11T11:48:33.577Z,19.10
2023-05-11T11:51:11.254Z,18.90
2023-05-11T11:53:38.345Z,18.70
2023-05-11T11:56:07.799Z,18.40
2023-05-11T11:59:00.918Z,17.70
2023-05-11T12:01:34.663Z,17.80
2023-05-11T12:04:04.738Z,17.90
2023-05-11T12:06:40.101Z,18.00
2023-05-11T12:09:09.796Z,17.90
2023-05-11T12:11:38.231Z,17.70
2023-05-11T12:14:06.063Z,17.70
2023-05-11T12:16:33.213Z,17.70
2023-05-11T12:19:02.174Z,17.90
2023-05-11T12:21:34.070Z,17.80
2023-05-11T12:24:05.721Z,17.70
2023-05-11T12:26:34.375Z,17.70
2023-05-11T12:29:13.223Z,17.50
2023-05-11T12:31:42.738Z,17.20
2023-05-11T12:34:17.576Z,17.30
2023-05-11T12:36:46.459Z,17.10
2023-05-11T12:39:27.473Z,16.80
2023-05-11T12:41:56.012Z,16.60
2023-05-11T12:44:25.526Z,16.50
2023-05-11T12:46:54.175Z,16.50
2023-05-11T12:49:26.423Z,16.50
2023-05-11T12:51:59.472Z,16.80
2023-05-11T12:54:34.804Z,17.00
2023-05-11T12:57:03.122Z,17.10
2023-05-11T12:59:32.830Z,17.10
2023-05-11T13:02:10.022Z,17.10
2023-05-11T13:04:37.827Z,16.90
2023-05-11T13:07:04.974Z,16.90
2023-05-11T13:09:32.165Z,17.00
2023-05-11T13:12:18.488Z,16.80
2023-05-11T13:14:50.658Z,16.80
2023-05-11T13:17:31.463Z,16.60
2023-05-11T13:20:22.275Z,16.70
2023-05-11T13:22:50.649Z,17.00
2023-05-11T13:25:21.701Z,17.30
2023-05-11T13:27:49.046Z,17.40
2023-05-11T13:30:16.050Z,17.10
2023-05-11T13:32:43.151Z,17.10
2023-05-11T13:35:10.599Z,17.20
2023-05-11T13:37:37.770Z,17.20
2023-05-11T13:40:06.660Z,17.70
2023-05-11T13:42:41.669Z,17.90
2023-05-11T13:45:08.956Z,18.10
2023-05-11T13:47:36.127Z,18.20
2023-05-11T13:50:03.887Z,18.00
2023-05-11T13:52:31.324Z,17.90
2023-05-11T13:54:58.201Z,17.40
2023-05-11T13:57:25.190Z,17.10
2023-05-11T13:59:52.133Z,17.10
2023-05-11T14:02:19.563Z,16.80
2023-05-11T14:04:46.570Z,16.70
2023-05-11T14:07:15.290Z,16.70
2023-05-11T14:09:43.862Z,16.80
2023-05-11T14:12:10.986Z,16.80
2023-05-11T14:14:37.939Z,16.80
2023-05-11T14:17:05.567Z,16.80
2023-05-11T14:19:32.533Z,16.80
2023-05-11T14:22:00.176Z,17.00
2023-05-11T14:24:27.152Z,16.70
2023-05-11T14:26:54.729Z,16.60
2023-05-11T14:29:21.615Z,16.80
2023-05-11T14:31:49.073Z,16.70
2023-05-11T14:34:16.092Z,16.80
2023-05-11T14:36:43.124Z,16.90
2023-05-11T14:39:10.098Z,17.00
2023-05-11T14:41:37.113Z,17.00
2023-05-11T14:44:04.118Z,16.90
2023-05-11T14:46:31.260Z,17.30
2023-05-11T14:48:58.224Z,17.50
2023-05-11T14:51:25.199Z,17.40
2023-05-11T14:53:52.372Z,17.50
2023-05-11T14:56:19.732Z,17.30
2023-05-11T14:58:47.003Z,17.20
2023-05-11T15:01:13.959Z,17.30
2023-05-11T15:03:41.584Z,17.70
2023-05-11T15:06:08.496Z,17.40
2023-05-11T15:08:35.554Z,17.50
2023-05-11T15:11:02.470Z,17.80
2023-05-11T15:13:29.423Z,18.00
2023-05-11T15:15:57.018Z,18.10
2023-05-11T15:18:24.029Z,18.30
2023-05-11T15:20:54.236Z,18.50
2023-05-11T15:23:21.648Z,18.10
2023-05-11T15:25:49.438Z,17.90
2023-05-11T15:28:16.654Z,18.00
2023-05-11T15:30:43.699Z,17.80
2023-05-11T15:33:10.681Z,17.70
2023-05-11T15:35:38.032Z,17.90
2023-05-11T15:38:06.181Z,18.10
2023-05-11T15:40:33.362Z,18.20
2023-05-11T15:43:00.650Z,18.40
2023-05-11T15:45:27.818Z,18.40
2023-05-11T15:47:54.937Z,18.30
2023-05-11T15:50:22.576Z,18.20
2023-05-11T15:52:49.607Z,18.20
2023-05-11T15:55:16.495Z,18.10
2023-05-11T15:57:43.457Z,17.60
2023-05-11T16:00:11.069Z,17.50
2023-05-11T16:02:38.491Z,17.20
2023-05-11T16:05:05.967Z,16.80
2023-05-11T16:07:32.959Z,16.90
2023-05-11T16:10:00.190Z,16.80
2023-05-11T16:12:28.614Z,16.70
2023-05-11T16:14:55.833Z,16.30
2023-05-11T16:17:23.037Z,16.00
2023-05-11T16:19:49.990Z,15.90
2023-05-11T16:22:17.216Z,15.90
2023-05-11T16:28:44.234Z,15.60
2023-05-11T16:31:11.201Z,15.60
2023-05-11T16:33:38.277Z,15.80
2023-05-11T16:36:05.861Z,15.90
2023-05-11T16:38:32.826Z,16.00
2023-05-11T16:40:59.862Z,15.90
2023-05-11T16:43:26.844Z,15.90
2023-05-11T16:45:54.066Z,15.80
2023-05-11T16:48:21.536Z,15.90
2023-05-11T16:50:48.569Z,15.80
2023-05-11T16:53:16.160Z,15.90
2023-05-11T16:55:43.199Z,16.10
2023-05-11T16:58:10.214Z,16.20
2023-05-11T17:00:37.203Z,16.30
2023-05-11T17:03:04.466Z,16.40
2023-05-11T17:05:31.542Z,16.50
2023-05-11T17:07:58.485Z,16.40
2023-05-11T17:10:25.676Z,16.40
2023-05-11T17:12:53.090Z,16.40
2023-05-11T17:15:20.090Z,16.60
2023-05-11T17:17:52.200Z,16.60
2023-05-11T17:20:21.047Z,16.70
2023-05-11T17:25:36.557Z,16.60
2023-05-11T17:28:04.242Z,16.50
2023-05-11T17:30:47.423Z,16.60
2023-05-11T17:33:16.389Z,16.50
2023-05-11T17:35:46.765Z,16.60
2023-05-11T17:38:13.718Z,16.50
2023-05-11T17:40:40.932Z,16.50
2023-05-11T17:43:07.926Z,16.40
2023-05-11T17:45:37.507Z,16.40
2023-05-11T17:48:04.737Z,16.40
2023-05-11T17:50:33.360Z,16.40
2023-05-11T17:53:00.608Z,16.30
2023-05-11T17:55:27.552Z,16.20
2023-05-11T17:57:54.480Z,16.30
2023-05-11T18:00:22.022Z,16.30
2023-05-11T18:02:49.221Z,16.30
2023-05-11T18:05:16.414Z,16.20
2023-05-11T18:07:43.407Z,16.20
2023-05-11T18:10:11.252Z,16.20
2023-05-11T18:12:38.358Z,16.30
2023-05-11T18:15:12.092Z,16.30
2023-05-11T18:17:39.167Z,16.30
2023-05-11T18:20:07.464Z,16.30
2023-05-11T18:22:36.672Z,16.20
2023-05-11T18:25:03.845Z,16.30
2023-05-11T18:27:33.855Z,16.30
2023-05-11T18:30:03.998Z,16.30
2023-05-11T18:32:30.968Z,16.30
2023-05-11T18:34:58.406Z,16.10
2023-05-11T18:37:28.861Z,15.90
2023-05-11T18:40:01.625Z,15.70
2023-05-11T18:42:28.582Z,15.60
2023-05-11T18:44:55.764Z,15.60
2023-05-11T18:47:23.112Z,15.50
2023-05-11T18:49:50.228Z,15.60
2023-05-11T18:52:17.179Z,15.40
2023-05-11T18:54:44.054Z,15.40
2023-05-11T18:57:12.625Z,15.40
2023-05-11T18:59:39.591Z,15.30
2023-05-11T19:02:07.028Z,15.40
2023-05-11T19:04:34.197Z,15.40
2023-05-11T19:07:02.776Z,15.40
2023-05-11T19:09:29.747Z,15.30
2023-05-11T19:11:56.908Z,15.20
2023-05-11T19:14:23.857Z,15.10
2023-05-11T19:16:53.494Z,15.00
2023-05-11T19:19:20.486Z,15.00
2023-05-11T19:21:48.814Z,14.90
2023-05-11T19:24:15.898Z,14.80
2023-05-11T19:26:45.507Z,15.20
2023-05-11T19:29:22.821Z,15.50
2023-05-11T19:31:49.973Z,15.50
2023-05-11T19:34:17.189Z,15.30
2023-05-11T19:36:44.159Z,15.40
2023-05-11T19:39:11.454Z,15.50
2023-05-11T19:41:38.865Z,15.80
2023-05-11T19:44:06.129Z,15.80
2023-05-11T19:46:33.048Z,15.60
2023-05-11T19:49:00.122Z,15.50
2023-05-11T19:51:27.007Z,15.50
2023-05-11T19:53:54.362Z,15.30
2023-05-11T19:56:22.019Z,15.30
2023-05-11T19:58:48.993Z,15.40
2023-05-11T20:01:16.024Z,15.40
2023-05-11T20:03:43.196Z,15.40
2023-05-11T20:06:10.168Z,15.40
2023-05-11T20:08:38.415Z,15.40
2023-05-11T20:11:05.421Z,15.10
2023-05-11T20:13:32.466Z,15.20
2023-05-11T20:16:00.292Z,15.20
2023-05-11T20:18:27.421Z,15.10
2023-05-11T20:20:56.019Z,15.10
2023-05-11T20:23:23.072Z,15.20
2023-05-11T20:25:50.366Z,15.30
2023-05-11T20:28:18.411Z,15.20
2023-05-11T20:30:45.357Z,15.10
2023-05-11T20:35:43.261Z,15.30
2023-05-11T20:38:16.004Z,15.30
2023-05-11T20:40:49.246Z,15.20
2023-05-11T20:43:16.883Z,15.10
2023-05-11T20:45:44.030Z,15.10
2023-05-11T20:48:11.112Z,15.10
2023-05-11T20:50:39.738Z,14.70
2023-05-11T20:53:10.355Z,14.60
2023-05-11T20:55:37.305Z,14.70
2023-05-11T20:58:04.988Z,15.00
2023-05-11T21:00:31.913Z,14.90
2023-05-11T21:02:58.920Z,14.90
2023-05-11T21:05:25.973Z,15.00
2023-05-11T21:07:52.939Z,15.00
2023-05-11T21:10:20.120Z,14.80
2023-05-11T21:12:47.237Z,14.90
2023-05-11T21:15:14.192Z,14.90
2023-05-11T21:17:41.319Z,15.10
2023-05-11T21:20:09.236Z,15.10
2023-05-11T21:22:36.465Z,15.00
2023-05-11T21:25:04.550Z,14.70
2023-05-11T21:27:31.911Z,14.70
2023-05-11T21:29:58.945Z,14.70
2023-05-11T21:32:26.187Z,14.50
2023-05-11T21:34:53.474Z,14.60
2023-05-11T21:37:21.122Z,14.50
2023-05-11T21:39:48.312Z,14.40
2023-05-11T21:42:15.220Z,14.30
2023-05-11T21:44:42.438Z,14.20
2023-05-11T21:47:09.349Z,14.10
2023-05-11T21:49:36.829Z,14.10
2023-05-11T21:52:05.946Z,14.10
2023-05-11T21:54:33.345Z,14.30
2023-05-11T21:57:00.424Z,14.40
2023-05-11T21:59:27.520Z,14.30
2023-05-11T22:01:57.129Z,14.10
2023-05-11T22:04:24.078Z,14.20
2023-05-11T22:06:50.931Z,14.10
2023-05-11T22:09:18.150Z,14.10
2023-05-11T22:11:45.106Z,14.10
2023-05-11T22:14:12.241Z,14.10
2023-05-11T22:16:39.294Z,14.10
2023-05-11T22:19:07.761Z,14.10
2023-05-11T22:21:36.761Z,14.00
2023-05-11T22:24:04.365Z,14.00
2023-05-11T22:26:31.337Z,13.90
2023-05-11T22:28:58.268Z,13.90
2023-05-11T22:31:26.782Z,13.90
2023-05-11T22:33:53.779Z,13.90
2023-05-11T22:36:20.710Z,13.80
2023-05-11T22:38:47.645Z,13.80
2023-05-11T22:41:14.519Z,13.80
2023-05-11T22:43:41.500Z,13.80
2023-05-11T22:46:08.521Z,13.80
2023-05-11T22:48:35.453Z,13.70
2023-05-11T22:51:06.220Z,13.70
2023-05-11T22:53:33.172Z,13.70
2023-05-11T22:56:07.621Z,13.60
2023-05-11T22:58:34.949Z,13.60
2023-05-11T23:01:01.954Z,13.60
2023-05-11T23:03:31.131Z,13.60
2023-05-11T23:05:58.066Z,13.50
2023-05-11T23:08:26.660Z,13.50
2023-05-11T23:10:53.685Z,13.50
2023-05-11T23:13:20.643Z,13.50
2023-05-11T23:15:47.660Z,13.50
2023-05-11T23:18:17.699Z,13.50
2023-05-11T23:20:44.846Z,13.50
2023-05-11T23:23:12.146Z,13.50
2023-05-11T23:25:39.173Z,13.50
2023-05-11T23:28:11.405Z,13.50
2023-05-11T23:30:38.428Z,13.40
2023-05-11T23:33:05.372Z,13.40
2023-05-11T23:35:32.445Z,13.40
2023-05-11T23:37:59.487Z,13.40
2023-05-11T23:40:28.486Z,13.30
2023-05-11T23:42:55.500Z,13.40
2023-05-11T23:45:23.467Z,13.40
2023-05-11T23:47:51.052Z,13.40
2023-05-11T23:50:18.617Z,13.30
2023-05-11T23:52:46.437Z,13.30
2023-05-11T23:55:13.351Z,13.40
2023-05-11T23:57:41.263Z,13.30
